createdAt,value
2019-01-15T00:00:14.489Z,73.21
2019-01-15T00:01:14.470Z,73.42
2019-01-15T00:02:14.467Z,73.32
2019-01-15T00:03:14.467Z,74.04
2019-01-15T00:04:14.453Z,74.46
2019-01-15T00:05:14.439Z,76.43
2019-01-15T00:06:14.438Z,74.04
2019-01-15T00:07:14.418Z,74.77
2019-01-15T00:08:14.430Z,74.98
2019-01-15T00:09:14.456Z,75.22
2019-01-15T00:10:14.363Z,74.77
2019-01-15T00:11:14.362Z,74.66
2019-01-15T00:12:14.367Z,75.01
2019-01-15T00:13:14.438Z,74.87
2019-01-15T00:14:14.353Z,75.12
2019-01-15T00:15:14.305Z,77.06
2019-01-15T00:16:14.293Z,76.16
2019-01-15T00:17:14.304Z,75.32
2019-01-15T00:18:14.287Z,76.57
2019-01-15T00:19:14.293Z,76.16
2019-01-15T00:20:14.246Z,76.37
2019-01-15T00:21:14.266Z,75.12
2019-01-15T00:22:14.231Z,74.29
2019-01-15T00:23:14.230Z,74.91
2019-01-15T00:24:14.202Z,76.16
2019-01-15T00:25:14.202Z,76.65
2019-01-15T00:26:14.176Z,76.26
2019-01-15T00:27:14.175Z,76.78
2019-01-15T00:28:14.178Z,76.16
2019-01-15T00:29:14.154Z,75.32
2019-01-15T00:30:14.131Z,76.26
2019-01-15T00:31:14.126Z,76.47
2019-01-15T00:32:14.173Z,78.03
2019-01-15T00:33:14.134Z,78.03
2019-01-15T00:34:14.094Z,78.03
2019-01-15T00:35:14.075Z,76.57
2019-01-15T00:36:14.079Z,75.88
2019-01-15T00:37:14.088Z,77.20
2019-01-15T00:38:14.057Z,77.83
2019-01-15T00:39:14.033Z,76.92
2019-01-15T00:40:14.018Z,76.20
2019-01-15T00:41:14.139Z,75.74
2019-01-15T00:42:15.499Z,75.46
2019-01-15T00:43:14.019Z,75.32
2019-01-15T00:44:13.978Z,74.91
2019-01-15T00:45:13.967Z,74.80
2019-01-15T00:46:13.966Z,75.22
2019-01-15T00:47:13.966Z,76.65
2019-01-15T00:48:13.963Z,77.69
2019-01-15T00:49:13.916Z,76.16
2019-01-15T00:50:13.901Z,75.12
2019-01-15T00:51:13.960Z,75.74
2019-01-15T00:52:13.895Z,76.78
2019-01-15T00:53:13.883Z,75.32
2019-01-15T00:54:13.863Z,75.01
2019-01-15T00:55:13.848Z,74.56
2019-01-15T00:56:13.841Z,74.80
2019-01-15T00:57:13.819Z,74.29
2019-01-15T00:58:13.853Z,74.46
2019-01-15T00:59:13.807Z,73.63
2019-01-15T01:00:13.799Z,73.55
2019-01-15T01:01:13.782Z,72.58
2019-01-15T01:02:13.772Z,72.48
2019-01-15T01:03:13.764Z,72.34
2019-01-15T01:04:13.749Z,72.86
2019-01-15T01:05:13.735Z,73.52
2019-01-15T01:06:13.720Z,73.73
2019-01-15T01:07:13.714Z,73.42
2019-01-15T01:08:13.712Z,73.00
2019-01-15T01:09:13.703Z,72.27
2019-01-15T01:10:13.691Z,72.27
2019-01-15T01:11:13.675Z,73.32
2019-01-15T01:12:13.660Z,73.21
2019-01-15T01:13:13.689Z,73.21
2019-01-15T01:14:13.660Z,74.87
2019-01-15T01:15:13.615Z,74.98
2019-01-15T01:16:13.611Z,72.69
2019-01-15T01:17:13.628Z,72.58
2019-01-15T01:18:13.581Z,72.27
2019-01-15T01:19:13.612Z,72.58
2019-01-15T01:20:13.572Z,71.75
2019-01-15T01:21:13.557Z,72.89
2019-01-15T01:22:13.566Z,73.94
2019-01-15T01:23:13.531Z,72.58
2019-01-15T01:24:13.534Z,73.32
2019-01-15T01:25:13.497Z,71.20
2019-01-15T01:26:13.505Z,71.65
2019-01-15T01:27:13.479Z,71.54
2019-01-15T01:28:13.476Z,71.44
2019-01-15T01:29:13.467Z,71.41
2019-01-15T01:30:13.449Z,72.45
2019-01-15T01:31:13.456Z,72.03
2019-01-15T01:32:13.437Z,72.79
2019-01-15T01:33:13.414Z,72.06
2019-01-15T01:34:13.412Z,71.41
2019-01-15T01:35:13.402Z,71.51
2019-01-15T01:36:13.376Z,71.51
2019-01-15T01:37:13.374Z,72.34
2019-01-15T01:38:13.349Z,71.61
2019-01-15T01:39:13.370Z,70.61
2019-01-15T01:40:13.358Z,70.57
2019-01-15T01:41:13.318Z,72.03
2019-01-15T01:42:13.314Z,71.30
2019-01-15T01:43:13.306Z,70.57
2019-01-15T01:44:13.298Z,70.05
2019-01-15T01:45:13.272Z,70.57
2019-01-15T01:46:13.304Z,70.75
2019-01-15T01:47:13.253Z,70.05
2019-01-15T01:48:13.241Z,70.36
2019-01-15T01:49:13.244Z,70.15
2019-01-15T01:50:13.228Z,70.12
2019-01-15T01:51:13.207Z,69.19
2019-01-15T01:52:13.190Z,69.81
2019-01-15T01:53:13.211Z,69.92
2019-01-15T01:54:13.184Z,69.95
2019-01-15T01:55:13.163Z,70.68
2019-01-15T01:56:13.140Z,71.51
2019-01-15T01:57:13.138Z,71.20
2019-01-15T01:58:13.124Z,71.30
2019-01-15T01:59:13.134Z,70.89
2019-01-15T02:00:13.107Z,71.30
2019-01-15T02:01:13.088Z,71.20
2019-01-15T02:02:13.128Z,71.51
2019-01-15T02:03:13.063Z,71.51
2019-01-15T02:04:13.065Z,69.84
2019-01-15T02:05:13.060Z,70.05
2019-01-15T02:06:13.027Z,70.68
2019-01-15T02:07:13.016Z,69.84
2019-01-15T02:08:13.033Z,70.15
2019-01-15T02:09:13.016Z,70.47
2019-01-15T02:10:12.992Z,71.09
2019-01-15T02:11:12.972Z,70.99
2019-01-15T02:12:12.954Z,70.26
2019-01-15T02:13:12.979Z,70.57
2019-01-15T02:14:12.975Z,70.26
2019-01-15T02:15:12.935Z,69.12
2019-01-15T02:16:12.934Z,70.68
2019-01-15T02:17:12.928Z,70.15
2019-01-15T02:18:12.909Z,69.87
2019-01-15T02:19:12.893Z,69.84
2019-01-15T02:20:12.866Z,69.22
2019-01-15T02:21:12.859Z,70.19
2019-01-15T02:22:12.846Z,70.68
2019-01-15T02:23:12.842Z,71.51
2019-01-15T02:24:12.846Z,72.79
2019-01-15T02:25:12.854Z,73.63
2019-01-15T02:26:12.797Z,72.06
2019-01-15T02:27:12.789Z,72.58
2019-01-15T02:28:12.785Z,72.58
2019-01-15T02:29:12.787Z,72.41
2019-01-15T02:30:12.757Z,74.60
2019-01-15T02:31:12.754Z,74.70
2019-01-15T02:32:12.744Z,75.15
2019-01-15T02:33:12.753Z,73.59
2019-01-15T02:34:12.715Z,72.55
2019-01-15T02:35:12.702Z,74.21
2019-01-15T02:36:12.697Z,73.80
2019-01-15T02:37:12.675Z,73.69
2019-01-15T02:38:12.668Z,73.24
2019-01-15T02:39:12.672Z,71.89
2019-01-15T02:40:12.755Z,72.62
2019-01-15T02:41:12.641Z,72.62
2019-01-15T02:42:12.615Z,72.41
2019-01-15T02:43:12.625Z,72.51
2019-01-15T02:44:12.624Z,72.09
2019-01-15T02:45:12.593Z,72.20
2019-01-15T02:46:12.585Z,72.93
2019-01-15T02:47:12.560Z,72.51
2019-01-15T02:48:12.549Z,73.14
2019-01-15T02:49:12.595Z,73.21
2019-01-15T02:50:12.527Z,72.27
2019-01-15T02:51:12.523Z,72.89
2019-01-15T02:52:12.520Z,73.00
2019-01-15T02:53:12.487Z,73.73
2019-01-15T02:54:12.498Z,74.04
2019-01-15T02:55:12.474Z,74.91
2019-01-15T02:56:12.484Z,75.22
2019-01-15T02:57:12.450Z,73.35
2019-01-15T02:58:12.433Z,73.45
2019-01-15T02:59:12.439Z,73.03
2019-01-15T03:00:12.406Z,73.76
2019-01-15T03:01:12.394Z,74.18
2019-01-15T03:02:12.396Z,72.72
2019-01-15T03:03:12.392Z,71.96
2019-01-15T03:04:12.382Z,73.10
2019-01-15T03:05:12.370Z,72.27
2019-01-15T03:06:12.357Z,73.21
2019-01-15T03:07:12.341Z,72.06
2019-01-15T03:08:12.321Z,71.44
2019-01-15T03:09:12.320Z,73.10
2019-01-15T03:10:12.295Z,72.27
2019-01-15T03:11:12.298Z,72.13
2019-01-15T03:12:12.276Z,72.89
2019-01-15T03:13:12.266Z,73.32
2019-01-15T03:14:12.299Z,72.69
2019-01-15T03:15:12.233Z,72.86
2019-01-15T03:16:12.223Z,72.55
2019-01-15T03:17:12.218Z,72.24
2019-01-15T03:18:12.231Z,73.94
2019-01-15T03:19:12.193Z,73.35
2019-01-15T03:20:12.205Z,73.21
2019-01-15T03:21:12.169Z,73.32
2019-01-15T03:22:12.162Z,73.73
2019-01-15T03:23:12.153Z,73.32
2019-01-15T03:24:12.128Z,73.83
2019-01-15T03:25:12.150Z,74.46
2019-01-15T03:26:12.122Z,74.18
2019-01-15T03:27:12.096Z,74.46
2019-01-15T03:28:12.093Z,74.56
2019-01-15T03:29:12.093Z,73.10
2019-01-15T03:30:12.096Z,73.63
2019-01-15T03:31:12.059Z,73.10
2019-01-15T03:32:12.094Z,72.58
2019-01-15T03:33:12.038Z,73.00
2019-01-15T03:34:12.021Z,73.21
2019-01-15T03:35:12.038Z,73.00
2019-01-15T03:36:12.049Z,73.21
2019-01-15T03:37:11.992Z,73.94
2019-01-15T03:38:11.969Z,74.87
2019-01-15T03:39:11.958Z,76.54
2019-01-15T03:40:11.967Z,76.33
2019-01-15T03:41:11.974Z,76.33
2019-01-15T03:42:11.931Z,75.40
2019-01-15T03:43:11.912Z,74.46
2019-01-15T03:44:11.900Z,74.04
2019-01-15T03:45:11.914Z,74.77
2019-01-15T03:46:11.876Z,73.66
2019-01-15T03:47:11.909Z,73.63
2019-01-15T03:48:11.859Z,76.16
2019-01-15T03:49:11.846Z,75.40
2019-01-15T03:50:11.849Z,73.73
2019-01-15T03:51:11.821Z,74.46
2019-01-15T03:52:11.807Z,74.66
2019-01-15T03:53:11.822Z,74.87
2019-01-15T03:54:11.784Z,73.42
2019-01-15T03:55:11.797Z,73.63
2019-01-15T03:56:11.763Z,74.15
2019-01-15T03:57:11.751Z,74.04
2019-01-15T03:58:11.741Z,73.32
2019-01-15T03:59:11.757Z,73.42
2019-01-15T04:00:11.760Z,74.77
2019-01-15T04:01:11.704Z,76.54
2019-01-15T04:02:11.726Z,76.43
2019-01-15T04:03:11.690Z,75.29
2019-01-15T04:04:11.673Z,75.81
2019-01-15T04:05:11.704Z,75.81
2019-01-15T04:06:11.667Z,76.54
2019-01-15T04:07:11.634Z,77.79
2019-01-15T04:08:11.623Z,77.69
2019-01-15T04:09:11.611Z,76.68
2019-01-15T04:10:11.624Z,76.16
2019-01-15T04:11:11.590Z,75.43
2019-01-15T04:12:11.612Z,74.87
2019-01-15T04:13:11.696Z,74.56
2019-01-15T04:14:11.575Z,74.98
2019-01-15T04:15:11.572Z,74.15
2019-01-15T04:16:11.547Z,74.46
2019-01-15T04:17:11.534Z,73.63
2019-01-15T04:18:11.527Z,73.63
2019-01-15T04:19:11.516Z,74.25
2019-01-15T04:20:11.581Z,74.98
2019-01-15T04:21:11.497Z,73.94
2019-01-15T04:22:11.478Z,74.46
2019-01-15T04:23:11.468Z,74.46
2019-01-15T04:24:11.461Z,74.56
2019-01-15T04:25:11.460Z,74.15
2019-01-15T04:26:11.428Z,74.80
2019-01-15T04:27:11.411Z,75.71
2019-01-15T04:28:11.401Z,75.19
2019-01-15T04:29:11.400Z,73.94
2019-01-15T04:30:11.404Z,74.35
2019-01-15T04:31:11.361Z,74.46
2019-01-15T04:32:11.353Z,73.83
2019-01-15T04:33:11.378Z,74.46
2019-01-15T04:34:11.387Z,74.15
2019-01-15T04:35:11.336Z,74.35
2019-01-15T04:36:11.309Z,73.42
2019-01-15T04:37:11.294Z,74.35
2019-01-15T04:38:11.292Z,76.02
2019-01-15T04:39:11.275Z,75.81
2019-01-15T04:40:11.283Z,75.81
2019-01-15T04:41:11.281Z,76.43
2019-01-15T04:42:11.240Z,75.92
2019-01-15T04:43:19.389Z,75.19
2019-01-15T04:44:12.280Z,75.19
2019-01-15T04:45:11.236Z,76.12
2019-01-15T04:46:11.195Z,75.09
2019-01-15T04:47:11.181Z,75.19
2019-01-15T04:48:11.180Z,75.19
2019-01-15T04:49:11.162Z,74.98
2019-01-15T04:50:11.185Z,75.19
2019-01-15T04:51:11.132Z,75.40
2019-01-15T04:52:11.137Z,74.77
2019-01-15T04:53:11.122Z,74.87
2019-01-15T04:54:11.116Z,75.71
2019-01-15T04:55:11.123Z,76.75
2019-01-15T04:56:11.094Z,76.02
2019-01-15T04:57:11.072Z,74.98
2019-01-15T04:58:11.109Z,74.66
2019-01-15T04:59:11.064Z,74.66
2019-01-15T05:00:11.074Z,76.02
2019-01-15T05:01:11.033Z,77.06
2019-01-15T05:02:11.012Z,76.33
2019-01-15T05:03:11.019Z,76.12
2019-01-15T05:04:11.002Z,74.77
2019-01-15T05:05:11.003Z,74.46
2019-01-15T05:06:10.976Z,74.56
2019-01-15T05:07:10.958Z,74.46
2019-01-15T05:08:10.943Z,74.98
2019-01-15T05:09:10.944Z,75.60
2019-01-15T05:10:10.941Z,75.19
2019-01-15T05:11:10.916Z,75.19
2019-01-15T05:12:10.903Z,74.46
2019-01-15T05:13:10.907Z,74.77
2019-01-15T05:14:10.873Z,74.66
2019-01-15T05:15:12.898Z,74.87
2019-01-15T05:16:10.853Z,75.15
2019-01-15T05:17:10.850Z,76.02
2019-01-15T05:18:10.854Z,75.29
2019-01-15T05:19:10.822Z,75.29
2019-01-15T05:20:10.849Z,75.29
2019-01-15T05:21:10.812Z,75.22
2019-01-15T05:22:10.799Z,75.19
2019-01-15T05:23:10.767Z,74.77
2019-01-15T05:24:10.777Z,74.87
2019-01-15T05:25:10.877Z,74.77
2019-01-15T05:26:10.753Z,74.56
2019-01-15T05:27:10.742Z,74.87
2019-01-15T05:28:10.743Z,76.23
2019-01-15T05:29:10.708Z,76.40
2019-01-15T05:30:10.707Z,76.89
2019-01-15T05:31:10.721Z,76.02
2019-01-15T05:32:10.670Z,76.33
2019-01-15T05:33:10.665Z,75.50
2019-01-15T05:34:10.652Z,76.02
2019-01-15T05:35:10.663Z,76.02
2019-01-15T05:36:10.657Z,76.54
2019-01-15T05:37:10.619Z,75.19
2019-01-15T05:38:10.620Z,76.54
2019-01-15T05:39:10.604Z,76.12
2019-01-15T05:40:10.580Z,74.84
2019-01-15T05:41:10.624Z,75.50
2019-01-15T05:42:10.575Z,75.50
2019-01-15T05:43:10.566Z,75.40
2019-01-15T05:44:10.539Z,75.05
2019-01-15T05:45:10.532Z,75.09
2019-01-15T05:46:10.553Z,76.12
2019-01-15T05:47:10.507Z,75.15
2019-01-15T05:48:10.524Z,75.05
2019-01-15T05:49:10.789Z,75.50
2019-01-15T05:50:10.468Z,75.60
2019-01-15T05:51:10.483Z,75.60
2019-01-15T05:52:10.458Z,75.19
2019-01-15T05:53:10.437Z,74.87
2019-01-15T05:54:10.420Z,75.40
2019-01-15T05:55:10.481Z,76.75
2019-01-15T05:56:10.417Z,74.87
2019-01-15T05:57:10.397Z,75.40
2019-01-15T05:58:10.377Z,74.66
2019-01-15T05:59:10.369Z,75.71
2019-01-15T06:00:10.354Z,76.12
2019-01-15T06:01:10.362Z,74.43
2019-01-15T06:02:10.354Z,74.66
2019-01-15T06:03:10.330Z,74.46
2019-01-15T06:04:10.307Z,75.60
2019-01-15T06:05:10.297Z,76.12
2019-01-15T06:06:10.322Z,76.54
2019-01-15T06:07:10.280Z,76.33
2019-01-15T06:08:10.261Z,76.89
2019-01-15T06:09:10.282Z,77.06
2019-01-15T06:10:10.239Z,77.69
2019-01-15T06:11:10.250Z,75.81
2019-01-15T06:12:10.233Z,75.81
2019-01-15T06:13:10.205Z,76.43
2019-01-15T06:14:10.193Z,77.10
2019-01-15T06:15:10.200Z,76.86
2019-01-15T06:16:10.197Z,78.00
2019-01-15T06:17:10.171Z,78.20
2019-01-15T06:18:10.160Z,78.24
2019-01-15T06:19:10.147Z,77.10
2019-01-15T06:20:10.147Z,76.47
2019-01-15T06:21:10.140Z,76.57
2019-01-15T06:22:10.109Z,75.22
2019-01-15T06:23:10.107Z,75.09
2019-01-15T06:24:10.080Z,75.92
2019-01-15T06:25:10.076Z,76.96
2019-01-15T06:26:10.092Z,76.86
2019-01-15T06:27:10.073Z,75.92
2019-01-15T06:28:10.043Z,77.17
2019-01-15T06:29:10.034Z,76.43
2019-01-15T06:30:10.009Z,76.12
2019-01-15T06:31:10.040Z,76.02
2019-01-15T06:32:10.004Z,76.12
2019-01-15T06:33:09.984Z,76.54
2019-01-15T06:34:10.070Z,75.81
2019-01-15T06:35:09.998Z,76.33
2019-01-15T06:36:10.479Z,76.12
2019-01-15T06:37:10.008Z,77.89
2019-01-15T06:38:09.940Z,76.37
2019-01-15T06:39:09.922Z,76.02
2019-01-15T06:40:09.901Z,76.16
2019-01-15T06:41:09.915Z,76.89
2019-01-15T06:42:09.875Z,76.89
2019-01-15T06:43:09.954Z,76.47
2019-01-15T06:44:09.894Z,76.78
2019-01-15T06:45:09.942Z,77.72
2019-01-15T06:46:09.858Z,76.89
2019-01-15T06:47:09.836Z,76.68
2019-01-15T06:48:09.830Z,76.57
2019-01-15T06:49:09.828Z,76.06
2019-01-15T06:50:09.809Z,75.22
2019-01-15T06:51:09.791Z,75.43
2019-01-15T06:52:09.793Z,75.32
2019-01-15T06:53:09.835Z,76.26
2019-01-15T06:54:09.791Z,75.40
2019-01-15T06:55:09.754Z,74.04
2019-01-15T06:56:09.768Z,73.32
2019-01-15T06:57:09.705Z,73.73
2019-01-15T06:58:09.703Z,74.87
2019-01-15T06:59:09.680Z,74.66
2019-01-15T07:00:09.680Z,74.98
2019-01-15T07:01:09.664Z,74.35
2019-01-15T07:02:09.654Z,74.77
2019-01-15T07:03:09.639Z,73.94
2019-01-15T07:04:09.633Z,74.46
2019-01-15T07:05:09.621Z,74.32
2019-01-15T07:06:09.617Z,74.77
2019-01-15T07:07:09.582Z,74.56
2019-01-15T07:08:09.575Z,74.87
2019-01-15T07:09:09.571Z,74.25
2019-01-15T07:10:09.627Z,74.35
2019-01-15T07:11:09.574Z,74.35
2019-01-15T07:12:09.563Z,75.71
2019-01-15T07:13:09.530Z,76.65
2019-01-15T07:14:09.504Z,76.65
2019-01-15T07:15:09.551Z,76.26
2019-01-15T07:16:09.536Z,76.33
2019-01-15T07:17:09.494Z,75.19
2019-01-15T07:18:09.470Z,75.50
2019-01-15T07:19:09.448Z,75.50
2019-01-15T07:20:09.494Z,76.02
2019-01-15T07:21:09.464Z,76.75
2019-01-15T07:22:09.421Z,76.12
2019-01-15T07:23:09.401Z,76.23
2019-01-15T07:24:09.411Z,74.77
2019-01-15T07:25:09.390Z,76.86
2019-01-15T07:26:09.410Z,74.77
2019-01-15T07:27:09.361Z,75.09
2019-01-15T07:28:09.398Z,75.50
2019-01-15T07:29:09.398Z,75.29
2019-01-15T07:30:09.344Z,74.87
2019-01-15T07:31:09.316Z,74.77
2019-01-15T07:32:09.355Z,75.92
2019-01-15T07:33:09.311Z,74.46
2019-01-15T07:34:09.312Z,74.46
2019-01-15T07:35:09.287Z,74.77
2019-01-15T07:36:09.269Z,74.87
2019-01-15T07:37:09.265Z,74.25
2019-01-15T07:38:09.306Z,74.35
2019-01-15T07:39:09.273Z,74.87
2019-01-15T07:40:09.222Z,74.77
2019-01-15T07:41:09.243Z,74.43
2019-01-15T07:42:09.235Z,75.05
2019-01-15T07:43:09.207Z,74.74
2019-01-15T07:44:09.192Z,74.74
2019-01-15T07:45:09.175Z,75.15
2019-01-15T07:46:09.936Z,76.09
2019-01-15T07:47:09.168Z,74.63
2019-01-15T07:48:09.146Z,74.95
2019-01-15T07:49:09.123Z,75.26
2019-01-15T07:50:09.113Z,74.32
2019-01-15T07:51:09.138Z,74.32
2019-01-15T07:52:09.101Z,74.74
2019-01-15T07:53:09.082Z,74.53
2019-01-15T07:54:09.094Z,74.18
2019-01-15T07:55:09.066Z,74.18
2019-01-15T07:56:09.049Z,73.87
2019-01-15T07:57:09.055Z,74.80
2019-01-15T07:58:09.022Z,75.01
2019-01-15T07:59:09.003Z,74.80
2019-01-15T08:00:08.994Z,75.12
2019-01-15T08:01:09.053Z,75.36
2019-01-15T08:02:08.987Z,75.22
2019-01-15T08:03:08.953Z,74.70
2019-01-15T08:04:08.950Z,75.43
2019-01-15T08:05:08.927Z,76.37
2019-01-15T08:06:08.943Z,75.43
2019-01-15T08:07:09.451Z,74.70
2019-01-15T08:08:08.940Z,73.87
2019-01-15T08:09:08.889Z,73.87
2019-01-15T08:10:08.877Z,74.91
2019-01-15T08:11:08.864Z,74.80
2019-01-15T08:12:08.867Z,74.70
2019-01-15T08:13:08.839Z,74.60
2019-01-15T08:14:12.132Z,74.08
2019-01-15T08:15:08.848Z,74.08
2019-01-15T08:16:08.813Z,74.57
2019-01-15T08:17:08.804Z,74.91
2019-01-15T08:18:08.777Z,74.35
2019-01-15T08:19:08.773Z,74.49
2019-01-15T08:20:08.767Z,74.46
2019-01-15T08:21:08.775Z,74.88
2019-01-15T08:22:08.764Z,74.57
2019-01-15T08:23:08.735Z,74.57
2019-01-15T08:24:08.715Z,73.94
2019-01-15T08:25:08.711Z,74.46
2019-01-15T08:26:08.696Z,74.46
2019-01-15T08:27:08.712Z,74.15
2019-01-15T08:28:08.673Z,74.25
2019-01-15T08:29:08.669Z,73.60
2019-01-15T08:30:08.717Z,74.25
2019-01-15T08:31:08.639Z,74.35
2019-01-15T08:32:08.689Z,74.46
2019-01-15T08:33:08.646Z,73.70
2019-01-15T08:34:08.610Z,73.60
2019-01-15T08:35:08.622Z,74.63
2019-01-15T08:36:08.594Z,73.60
2019-01-15T08:37:08.576Z,73.60
2019-01-15T08:38:08.554Z,74.18
2019-01-15T08:39:08.634Z,73.28
2019-01-15T08:40:08.537Z,74.01
2019-01-15T08:41:09.403Z,73.56
2019-01-15T08:42:08.525Z,73.35
2019-01-15T08:43:08.508Z,73.97
2019-01-15T08:44:08.503Z,75.12
2019-01-15T08:45:08.481Z,75.95
2019-01-15T08:46:08.461Z,74.08
2019-01-15T08:47:08.488Z,74.80
2019-01-15T08:48:08.442Z,73.66
2019-01-15T08:49:08.424Z,74.39
2019-01-15T08:50:08.443Z,73.77
2019-01-15T08:51:08.432Z,74.29
2019-01-15T08:52:08.444Z,74.60
2019-01-15T08:53:08.401Z,73.35
2019-01-15T08:54:08.392Z,73.66
2019-01-15T08:55:08.372Z,73.87
2019-01-15T08:56:08.357Z,74.39
2019-01-15T08:57:08.368Z,74.08
2019-01-15T08:58:08.331Z,74.29
2019-01-15T08:59:08.308Z,74.08
2019-01-15T09:00:08.319Z,74.80
2019-01-15T09:01:08.294Z,74.18
2019-01-15T09:02:08.304Z,74.60
2019-01-15T09:03:08.339Z,74.70
2019-01-15T09:04:08.279Z,74.49
2019-01-15T09:05:08.261Z,74.80
2019-01-15T09:06:08.286Z,74.57
2019-01-15T09:07:09.421Z,75.64
2019-01-15T09:08:08.209Z,74.70
2019-01-15T09:09:08.200Z,75.19
2019-01-15T09:10:08.189Z,74.15
2019-01-15T09:11:08.174Z,74.57
2019-01-15T09:12:08.180Z,74.26
2019-01-15T09:13:08.156Z,74.88
2019-01-15T09:14:08.163Z,74.98
2019-01-15T09:15:08.159Z,74.46
2019-01-15T09:16:08.127Z,73.94
2019-01-15T09:17:11.091Z,75.29
2019-01-15T09:18:08.097Z,74.98
2019-01-15T09:19:08.089Z,75.29
2019-01-15T09:20:08.077Z,75.57
2019-01-15T09:21:08.085Z,75.57
2019-01-15T09:22:08.106Z,75.46
2019-01-15T09:23:08.041Z,74.43
2019-01-15T09:24:08.027Z,73.70
2019-01-15T09:25:08.085Z,73.80
2019-01-15T09:26:08.025Z,73.80
2019-01-15T09:27:08.006Z,74.11
2019-01-15T09:28:08.005Z,73.49
2019-01-15T09:29:08.036Z,74.63
2019-01-15T09:30:07.959Z,74.29
2019-01-15T09:31:07.948Z,73.36
2019-01-15T09:32:07.988Z,73.46
2019-01-15T09:33:07.962Z,74.19
2019-01-15T09:34:07.933Z,73.63
2019-01-15T09:35:07.919Z,74.08
2019-01-15T09:36:07.912Z,72.22
2019-01-15T09:37:07.936Z,72.87
2019-01-15T09:38:07.922Z,74.11
2019-01-15T09:39:07.928Z,73.60
2019-01-15T09:40:07.851Z,73.88
2019-01-15T09:41:07.846Z,73.15
2019-01-15T09:42:07.827Z,73.36
2019-01-15T09:43:07.843Z,73.77
2019-01-15T09:44:07.846Z,72.84
2019-01-15T09:45:07.784Z,71.97
2019-01-15T09:46:07.774Z,72.22
2019-01-15T09:47:07.831Z,71.59
2019-01-15T09:48:07.770Z,72.08
2019-01-15T09:49:07.745Z,72.39
2019-01-15T09:50:07.741Z,72.80
2019-01-15T09:51:07.720Z,72.77
2019-01-15T09:52:13.177Z,73.60
2019-01-15T09:53:08.712Z,72.46
2019-01-15T09:54:07.679Z,72.05
2019-01-15T09:55:07.716Z,71.66
2019-01-15T09:56:07.657Z,71.45
2019-01-15T09:57:07.653Z,71.77
2019-01-15T09:58:07.658Z,71.66
2019-01-15T09:59:07.627Z,72.36
2019-01-15T10:00:07.624Z,71.77
2019-01-15T10:01:07.611Z,71.56
2019-01-15T10:02:07.599Z,71.97
2019-01-15T10:03:07.592Z,71.66
2019-01-15T10:04:07.562Z,72.28
2019-01-15T10:05:07.554Z,72.70
2019-01-15T10:06:07.547Z,72.77
2019-01-15T10:07:07.549Z,71.63
2019-01-15T10:08:07.557Z,71.63
2019-01-15T10:09:08.130Z,72.01
2019-01-15T10:10:07.510Z,71.80
2019-01-15T10:11:07.496Z,70.97
2019-01-15T10:12:07.476Z,70.59
2019-01-15T10:13:07.479Z,71.42
2019-01-15T10:14:07.451Z,71.32
2019-01-15T10:15:07.445Z,71.11
2019-01-15T10:16:07.435Z,71.63
2019-01-15T10:17:07.436Z,72.05
2019-01-15T10:18:07.501Z,71.73
2019-01-15T10:19:07.410Z,71.53
2019-01-15T10:20:07.407Z,71.42
2019-01-15T10:21:07.373Z,71.73
2019-01-15T10:22:07.373Z,71.42
2019-01-15T10:23:07.414Z,72.05
2019-01-15T10:24:07.943Z,71.63
2019-01-15T10:25:07.327Z,72.15
2019-01-15T10:26:07.324Z,72.15
2019-01-15T10:27:07.357Z,71.84
2019-01-15T10:28:07.411Z,72.11
2019-01-15T10:29:07.344Z,72.53
2019-01-15T10:30:07.279Z,72.94
2019-01-15T10:31:07.282Z,71.36
2019-01-15T10:32:07.255Z,71.28
2019-01-15T10:33:07.257Z,71.18
2019-01-15T10:34:07.235Z,70.94
2019-01-15T10:35:07.208Z,70.87
2019-01-15T10:36:07.232Z,71.28
2019-01-15T10:37:07.192Z,71.08
2019-01-15T10:38:07.187Z,70.67
2019-01-15T10:39:07.169Z,70.73
2019-01-15T10:40:07.175Z,71.46
2019-01-15T10:41:07.182Z,71.67
2019-01-15T10:42:07.135Z,70.32
2019-01-15T10:43:07.178Z,69.90
2019-01-15T10:44:07.158Z,69.49
2019-01-15T10:45:07.123Z,69.46
2019-01-15T10:46:07.134Z,69.77
2019-01-15T10:47:07.088Z,71.33
2019-01-15T10:48:07.083Z,70.70
2019-01-15T10:49:07.053Z,70.73
2019-01-15T10:50:08.033Z,70.73
2019-01-15T10:51:07.042Z,71.15
2019-01-15T10:52:07.028Z,72.19
2019-01-15T10:53:07.465Z,72.15
2019-01-15T10:54:07.025Z,70.84
2019-01-15T10:55:07.027Z,71.46
2019-01-15T10:56:06.973Z,71.25
2019-01-15T10:57:06.968Z,71.46
2019-01-15T10:58:06.962Z,70.84
2019-01-15T10:59:07.896Z,71.77
2019-01-15T11:00:06.935Z,71.46
2019-01-15T11:01:07.966Z,70.94
2019-01-15T11:02:06.901Z,71.36
2019-01-15T11:03:06.998Z,70.94
2019-01-15T11:04:06.877Z,71.36
2019-01-15T11:05:06.866Z,70.73
2019-01-15T11:06:06.866Z,71.98
2019-01-15T11:07:06.842Z,72.71
2019-01-15T11:08:06.849Z,73.11
2019-01-15T11:09:06.826Z,73.43
2019-01-15T11:10:06.808Z,70.84
2019-01-15T11:11:06.801Z,71.36
2019-01-15T11:12:06.818Z,70.63
2019-01-15T11:13:06.811Z,70.84
2019-01-15T11:14:06.763Z,71.98
2019-01-15T11:15:06.754Z,70.84
2019-01-15T11:16:06.766Z,71.01
2019-01-15T11:17:07.407Z,71.36
2019-01-15T11:18:06.728Z,70.60
2019-01-15T11:19:06.710Z,71.84
2019-01-15T11:20:06.701Z,71.43
2019-01-15T11:21:06.716Z,71.46
2019-01-15T11:22:06.697Z,71.94
2019-01-15T11:23:06.680Z,72.67
2019-01-15T11:24:06.648Z,70.81
2019-01-15T11:25:06.634Z,71.53
2019-01-15T11:26:06.626Z,70.81
2019-01-15T11:27:06.619Z,71.94
2019-01-15T11:28:06.636Z,71.53
2019-01-15T11:29:06.589Z,71.77
2019-01-15T11:30:06.576Z,71.67
2019-01-15T11:31:06.569Z,71.67
2019-01-15T11:32:06.552Z,72.71
2019-01-15T11:33:06.555Z,72.71
2019-01-15T11:34:06.543Z,72.71
2019-01-15T11:35:06.529Z,72.19
2019-01-15T11:36:06.506Z,71.46
2019-01-15T11:37:06.542Z,71.25
2019-01-15T11:38:06.488Z,72.29
2019-01-15T11:39:06.489Z,72.19
2019-01-15T11:40:06.471Z,72.91
2019-01-15T11:41:06.535Z,72.56
2019-01-15T11:42:06.583Z,72.19
2019-01-15T11:43:06.424Z,72.29
2019-01-15T11:44:06.456Z,72.08
2019-01-15T11:45:06.416Z,72.60
2019-01-15T11:46:06.422Z,73.32
2019-01-15T11:47:06.389Z,72.39
2019-01-15T11:48:06.424Z,72.91
2019-01-15T11:49:06.423Z,73.84
2019-01-15T11:50:06.588Z,73.32
2019-01-15T11:51:06.401Z,72.71
2019-01-15T11:52:06.334Z,73.22
2019-01-15T11:53:06.377Z,73.22
2019-01-15T11:54:13.143Z,73.32
2019-01-15T11:55:14.029Z,73.57
2019-01-15T11:56:40.643Z,74.67
2019-01-15T11:58:35.046Z,74.50
2019-01-15T11:59:18.291Z,74.40
2019-01-15T12:00:19.281Z,73.88
2019-01-15T12:01:18.120Z,74.40
2019-01-15T12:02:22.170Z,74.50
2019-01-15T12:03:18.102Z,74.29
2019-01-15T12:04:19.173Z,74.50
2019-01-15T12:05:18.091Z,75.12
2019-01-15T12:06:18.065Z,74.50
2019-01-15T12:07:18.064Z,75.12
2019-01-15T12:08:19.126Z,74.29
2019-01-15T12:09:18.069Z,74.67
2019-01-15T12:10:18.124Z,74.29
2019-01-15T12:11:17.995Z,73.98
2019-01-15T12:12:18.006Z,73.88
2019-01-15T12:13:18.061Z,74.71
2019-01-15T12:14:17.998Z,75.12
2019-01-15T12:15:18.090Z,75.32
2019-01-15T12:16:17.959Z,74.40
2019-01-15T12:17:18.018Z,74.08
2019-01-15T12:18:17.939Z,74.91
2019-01-15T12:19:18.010Z,74.60
2019-01-15T12:20:17.908Z,74.08
2019-01-15T12:21:17.991Z,74.50
2019-01-15T12:22:17.896Z,74.50
2019-01-15T12:23:18.037Z,74.91
2019-01-15T12:24:17.881Z,74.15
2019-01-15T12:25:17.981Z,74.46
2019-01-15T12:26:17.841Z,74.05
2019-01-15T12:27:17.920Z,73.32
2019-01-15T12:28:17.823Z,73.01
2019-01-15T12:29:17.834Z,73.74
2019-01-15T12:30:17.803Z,75.26
2019-01-15T12:31:17.873Z,73.71
2019-01-15T12:32:17.785Z,73.19
2019-01-15T12:33:17.915Z,73.01
2019-01-15T12:34:17.774Z,74.57
2019-01-15T12:35:17.747Z,74.05
2019-01-15T12:36:17.736Z,73.53
2019-01-15T12:37:18.791Z,73.84
2019-01-15T12:38:17.708Z,74.57
2019-01-15T12:39:18.786Z,73.11
2019-01-15T12:40:17.688Z,74.32
2019-01-15T12:41:17.649Z,74.26
2019-01-15T12:42:17.719Z,73.11
2019-01-15T12:43:17.648Z,73.32
2019-01-15T12:44:20.878Z,73.84
2019-01-15T12:45:18.345Z,75.71
2019-01-15T12:46:17.662Z,74.26
2019-01-15T12:47:17.608Z,74.63
2019-01-15T12:48:17.730Z,72.98
2019-01-15T12:49:17.609Z,73.32
2019-01-15T12:50:17.672Z,72.81
2019-01-15T12:51:17.571Z,73.22
2019-01-15T12:52:17.552Z,72.50
2019-01-15T12:53:17.676Z,72.91